Time;durP1;ratioP1;P1;durP2;ratioP2;P2;SDS_P1;SDS_P2;PMS_P1;PMS_P2;Temp;Humidity;BMP_temperature;BMP_pressure;BME280_temperature;BME280_humidity;BME280_pressure;Samples;Min_cycle;Max_cycle;Signal;HPM_P1;HPM_P2
2021/11/25 00:01:16;;;;;;;1999.90;999.90;;;;;;;2.30;55.09;101006.38;4890784;28;97832;-76
2021/11/25 00:03:45;;;;;;;1999.90;999.90;;;;;;;2.29;55.22;101007.22;4886499;28;100424;-77
2021/11/25 00:06:13;;;;;;;1999.90;999.90;;;;;;;2.27;55.11;101007.13;4902598;28;100187;-77
2021/11/25 00:08:42;;;;;;;1999.90;999.90;;;;;;;2.27;55.60;101003.59;4903109;28;97367;-79
2021/11/25 00:11:10;;;;;;;1999.90;999.90;;;;;;;2.29;55.09;101007.22;4903655;28;97300;-77
2021/11/25 00:13:38;;;;;;;1999.90;999.90;;;;;;;2.29;54.92;100996.72;4902107;28;98910;-78
2021/11/25 00:16:06;;;;;;;1999.90;999.90;;;;;;;2.30;54.86;101003.75;4886817;28;101457;-78
2021/11/25 00:18:39;;;;;;;1999.90;999.90;;;;;;;2.66;53.52;101000.59;4902023;28;98190;-78
2021/11/25 00:21:09;;;;;;;1999.90;999.90;;;;;;;2.83;53.10;100986.69;4891163;28;97118;-76
2021/11/25 00:23:37;;;;;;;1999.90;999.90;;;;;;;2.60;53.61;100995.03;4895027;28;99471;-76
2021/11/25 00:26:05;;;;;;;1999.90;999.90;;;;;;;2.55;53.67;100986.88;4903488;28;99176;-78
2021/11/25 00:28:34;;;;;;;1999.90;999.90;;;;;;;2.52;53.85;100976.19;4887284;28;96926;-80
2021/11/25 00:31:02;;;;;;;1999.90;999.90;;;;;;;2.50;53.86;100976.91;4887380;28;96901;-77
2021/11/25 00:33:31;;;;;;;1999.90;999.90;;;;;;;2.49;53.89;100977.75;4886928;28;99777;-79
2021/11/25 00:36:00;;;;;;;1999.90;999.90;;;;;;;2.46;54.09;100974.94;4881416;28;101601;-79
2021/11/25 00:38:28;;;;;;;1999.90;999.90;;;;;;;2.44;54.13;100969.59;4903842;28;96929;-78
2021/11/25 00:40:57;;;;;;;1999.90;999.90;;;;;;;2.42;54.77;100960.72;4903750;28;97138;-78
2021/11/25 00:43:25;;;;;;;1999.90;999.90;;;;;;;2.40;54.65;100957.09;4889694;28;100641;-78
2021/11/25 00:45:53;;;;;;;1999.90;999.90;;;;;;;2.71;53.14;100952.75;4885442;28;97732;-79
2021/11/25 00:48:21;;;;;;;1999.90;999.90;;;;;;;2.88;52.13;100951.03;4895839;28;97243;-78
2021/11/25 00:50:50;;;;;;;1999.90;999.90;;;;;;;2.63;52.93;100942.63;4868368;28;97592;-77
2021/11/25 00:53:19;;;;;;;1999.90;999.90;;;;;;;2.52;53.16;100947.31;4883934;28;99657;-78
2021/11/25 00:55:47;;;;;;;1999.90;999.90;;;;;;;2.48;53.74;100941.78;4884915;28;99799;-78
2021/11/25 00:58:17;;;;;;;1999.90;999.90;;;;;;;2.46;54.17;100938.16;4889665;28;97397;-80
2021/11/25 01:00:45;;;;;;;1999.90;999.90;;;;;;;2.44;53.59;100934.56;4887892;28;98814;-80
2021/11/25 01:03:14;;;;;;;1999.90;999.90;;;;;;;2.40;54.07;100938.72;4899615;28;100580;-80
2021/11/25 01:05:46;;;;;;;1999.90;999.90;;;;;;;2.39;53.79;100930.75;4900610;28;97969;-78
2021/11/25 01:08:15;;;;;;;1999.90;999.90;;;;;;;2.37;54.48;100917.56;4902174;28;98130;-77
2021/11/25 01:10:45;;;;;;;1999.90;999.90;;;;;;;2.35;53.98;100919.19;4873309;28;97434;-75
2021/11/25 01:13:13;;;;;;;1999.90;999.90;;;;;;;2.34;54.66;100913.84;4901540;28;98415;-75
2021/11/25 01:15:42;;;;;;;1999.90;999.90;;;;;;;2.31;54.43;100914.56;4883874;28;97793;-76
2021/11/25 01:18:12;;;;;;;1999.90;999.90;;;;;;;2.29;54.00;100912.69;4898190;28;96940;-76
2021/11/25 01:20:42;;;;;;;1999.90;999.90;;;;;;;2.59;52.79;100910.06;4890982;28;97109;-77
2021/11/25 01:23:13;;;;;;;1999.90;999.90;;;;;;;2.39;53.35;100909.75;4884863;28;101699;-79
2021/11/25 01:25:42;;;;;;;1999.90;999.90;;;;;;;2.33;53.88;100905.06;4908155;28;97658;-79
2021/11/25 01:28:13;;;;;;;1999.90;999.90;;;;;;;2.33;54.33;100899.81;4876413;28;97734;-79
2021/11/25 01:30:42;;;;;;;1999.90;999.90;;;;;;;2.30;53.71;100893.50;4873924;28;97859;-77
2021/11/25 01:33:11;;;;;;;1999.90;999.90;;;;;;;2.27;54.41;100893.34;4902846;28;97125;-76
2021/11/25 01:35:39;;;;;;;1999.90;999.90;;;;;;;2.26;54.65;100896.75;4906297;28;98194;-77
2021/11/25 01:38:08;;;;;;;1999.90;999.90;;;;;;;2.25;54.51;100895.88;4905981;28;97648;-75
2021/11/25 01:40:37;;;;;;;1999.90;999.90;;;;;;;2.26;54.46;100896.75;4887972;28;96999;-79
2021/11/25 01:43:06;;;;;;;1999.90;999.90;;;;;;;2.26;54.49;100891.50;4887784;28;97628;-79
2021/11/25 01:45:35;;;;;;;1999.90;999.90;;;;;;;2.25;54.59;100887.09;4905481;28;98262;-81
2021/11/25 01:48:04;;;;;;;1999.90;999.90;;;;;;;2.24;54.35;100883.56;4906077;28;96757;-81
2021/11/25 01:50:34;;;;;;;1999.90;999.90;;;;;;;2.24;54.50;100882.66;4890914;28;98000;-79
2021/11/25 01:53:03;;;;;;;1999.90;999.90;;;;;;;2.20;54.40;100874.59;4903850;28;98714;-78
2021/11/25 01:55:31;;;;;;;1999.90;999.90;;;;;;;2.20;54.51;100866.72;4885144;28;98908;-79
2021/11/25 01:58:00;;;;;;;1999.90;999.90;;;;;;;2.52;53.66;100871.13;4886038;28;96945;-80
2021/11/25 02:00:36;;;;;;;1999.90;999.90;;;;;;;2.35;53.88;100865.75;4905251;28;97056;-76
2021/11/25 02:03:07;;;;;;;1999.90;999.90;;;;;;;2.30;54.23;100864.63;4882324;28;99589;-76
2021/11/25 02:05:36;;;;;;;1999.90;999.90;;;;;;;2.29;54.54;100857.56;4902032;28;100396;-76
2021/11/25 02:08:05;;;;;;;1999.90;999.90;;;;;;;2.29;54.66;100857.56;4904811;28;96935;-79
2021/11/25 02:10:34;;;;;;;1999.90;999.90;;;;;;;2.27;54.23;100848.69;4903622;28;97825;-78
2021/11/25 02:13:03;;;;;;;1999.90;999.90;;;;;;;2.24;54.81;100846.81;4887289;28;101058;-76
2021/11/25 02:15:35;;;;;;;1999.90;999.90;;;;;;;2.24;54.48;100846.81;4903889;28;98686;-79
2021/11/25 02:18:06;;;;;;;1999.90;999.90;;;;;;;2.24;54.48;100835.41;4871588;28;97683;-80
2021/11/25 02:20:37;;;;;;;1999.90;999.90;;;;;;;2.22;54.45;100829.19;4903667;28;97351;-78
2021/11/25 02:23:06;;;;;;;1999.90;999.90;;;;;;;2.20;55.01;100829.97;4903055;28;99733;-79
2021/11/25 02:25:34;;;;;;;1999.90;999.90;;;;;;;2.53;54.36;100830.03;4884340;28;99657;-77
2021/11/25 02:28:04;;;;;;;1999.90;999.90;;;;;;;2.72;52.67;100831.09;4885898;28;97754;-76
2021/11/25 02:30:33;;;;;;;1999.90;999.90;;;;;;;2.48;53.38;100824.50;4904929;28;97791;-75
2021/11/25 02:33:01;;;;;;;1999.90;999.90;;;;;;;2.41;53.73;100819.75;4904338;28;100874;-76
2021/11/25 02:35:32;;;;;;;1999.90;999.90;;;;;;;2.37;54.34;100819.50;4887617;28;97788;-78
2021/11/25 02:38:02;;;;;;;1999.90;999.90;;;;;;;2.35;54.42;100810.63;4904238;28;96741;-76
2021/11/25 02:40:33;;;;;;;1999.90;999.90;;;;;;;2.33;54.73;100804.41;4887555;28;96974;-78
2021/11/25 02:43:04;;;;;;;1999.90;999.90;;;;;;;2.29;54.11;100812.94;4886212;28;97890;-77
2021/11/25 02:45:43;;;;;;;1999.90;999.90;;;;;;;2.24;54.68;100809.16;4903049;28;98835;-76
2021/11/25 02:48:12;;;;;;;1999.90;999.90;;;;;;;2.22;54.74;100808.19;4888273;28;97090;-77
2021/11/25 02:50:40;;;;;;;1999.90;999.90;;;;;;;2.22;54.67;100801.19;4893934;28;98213;-76
2021/11/25 02:53:10;;;;;;;1999.90;999.90;;;;;;;2.23;55.01;100802.09;4887555;28;99496;-77
2021/11/25 02:55:39;;;;;;;1999.90;999.90;;;;;;;2.56;53.89;100788.16;4902937;28;98270;-76
2021/11/25 02:58:07;;;;;;;1999.90;999.90;;;;;;;2.38;54.19;100792.44;4905534;28;98211;-77
2021/11/25 03:00:40;;;;;;;1999.90;999.90;;;;;;;2.31;54.23;100785.06;4905123;28;97758;-78
2021/11/25 03:03:10;;;;;;;1999.90;999.90;;;;;;;2.28;54.81;100775.28;4886964;28;99617;-80
2021/11/25 03:05:42;;;;;;;1999.90;999.90;;;;;;;2.27;54.48;100775.19;4888233;28;99852;-77
2021/11/25 03:08:12;;;;;;;1999.90;999.90;;;;;;;2.25;54.92;100774.22;4902919;28;97466;-77
2021/11/25 03:10:42;;;;;;;1999.90;999.90;;;;;;;2.22;54.74;100774.06;4890056;28;96985;-78
2021/11/25 03:13:13;;;;;;;1999.90;999.90;;;;;;;2.17;55.39;100766.81;4906662;28;98859;-76
2021/11/25 03:15:42;;;;;;;1999.90;999.90;;;;;;;2.14;55.13;100781.50;4906621;28;99227;-77
2021/11/25 03:18:11;;;;;;;1999.90;999.90;;;;;;;2.11;55.18;100776.97;4907974;28;97869;-77
2021/11/25 03:20:43;;;;;;;1999.90;999.90;;;;;;;2.03;55.23;100769.47;4893965;28;96826;-77
2021/11/25 03:23:14;;;;;;;1999.90;999.90;;;;;;;1.97;55.66;100770.03;4900056;28;100669;-77
2021/11/25 03:25:43;;;;;;;1999.90;999.90;;;;;;;1.93;55.74;100765.44;4916386;28;97642;-77
2021/11/25 03:28:11;;;;;;;1999.90;999.90;;;;;;;1.94;55.30;100766.34;4901562;28;97875;-77
2021/11/25 03:30:40;;;;;;;1999.90;999.90;;;;;;;1.93;55.93;100757.56;4904193;28;96989;-76
2021/11/25 03:33:10;;;;;;;1999.90;999.90;;;;;;;1.95;55.60;100758.56;4901867;28;97986;-77
2021/11/25 03:35:38;;;;;;;1999.90;999.90;;;;;;;1.96;55.59;100749.84;4902183;28;98902;-80
2021/11/25 03:38:08;;;;;;;1999.90;999.90;;;;;;;1.95;55.29;100753.31;4903090;28;96999;-78
2021/11/25 03:40:38;;;;;;;1999.90;999.90;;;;;;;1.97;55.34;100750.78;4901387;28;97132;-77
2021/11/25 03:43:06;;;;;;;1999.90;999.90;;;;;;;1.99;55.73;100746.50;4902652;28;97645;-77
2021/11/25 03:45:34;;;;;;;1999.90;999.90;;;;;;;2.01;55.38;100739.63;4901391;28;98107;-78
2021/11/25 03:48:03;;;;;;;1999.90;999.90;;;;;;;2.03;55.64;100733.66;4903761;28;99142;-79
2021/11/25 03:50:31;;;;;;;1999.90;999.90;;;;;;;2.01;55.99;100740.53;4903353;28;97428;-78
2021/11/25 03:52:59;;;;;;;1999.90;999.90;;;;;;;1.99;55.81;100749.13;4904257;28;97719;-76
2021/11/25 03:55:28;;;;;;;1999.90;999.90;;;;;;;1.96;55.20;100736.72;4886437;28;100911;-77
2021/11/25 03:57:58;;;;;;;1999.90;999.90;;;;;;;1.92;55.44;100742.66;4898201;28;97556;-77
2021/11/25 04:00:27;;;;;;;1999.90;999.90;;;;;;;1.89;55.38;100746.84;4892361;28;97926;-79
2021/11/25 04:02:55;;;;;;;1999.90;999.90;;;;;;;1.86;55.36;100744.03;4902077;28;99464;-78
2021/11/25 04:05:23;;;;;;;1999.90;999.90;;;;;;;1.85;55.39;100745.75;4903867;28;98938;-76
2021/11/25 04:07:52;;;;;;;1999.90;999.90;;;;;;;1.83;55.69;100747.41;4903001;28;98152;-79
2021/11/25 04:10:20;;;;;;;1999.90;999.90;;;;;;;2.16;53.80;100736.13;4902866;28;97297;-79
2021/11/25 04:12:48;;;;;;;1999.90;999.90;;;;;;;1.94;55.05;100730.53;4903022;28;97832;-75
2021/11/25 04:15:19;;;;;;;1999.90;999.90;;;;;;;1.89;54.85;100734.59;4882262;28;99301;-75
2021/11/25 04:17:47;;;;;;;1999.90;999.90;;;;;;;1.88;55.33;100724.03;4905155;28;97193;-77
2021/11/25 04:20:16;;;;;;;1999.90;999.90;;;;;;;1.86;54.87;100723.94;4888256;28;97699;-76
2021/11/25 04:22:45;;;;;;;1999.90;999.90;;;;;;;1.83;55.14;100715.00;4904150;28;97673;-76
2021/11/25 04:25:15;;;;;;;1999.90;999.90;;;;;;;1.82;55.46;100724.59;4906160;28;97640;-76
2021/11/25 04:27:44;;;;;;;1999.90;999.90;;;;;;;1.79;55.34;100721.81;4905673;28;97210;-77
2021/11/25 04:30:24;;;;;;;1999.90;999.90;;;;;;;1.79;55.29;100713.94;4908757;28;96819;-76
2021/11/25 04:35:39;;;;;;;1999.90;999.90;;;;;;;1.79;55.02;100703.44;4915586;28;97779;-76
2021/11/25 04:38:09;;;;;;;1999.90;999.90;;;;;;;1.81;55.07;100693.94;4901215;28;98784;-75
2021/11/25 04:40:40;;;;;;;1999.90;999.90;;;;;;;1.83;55.48;100696.66;4914030;28;97064;-78
2021/11/25 04:43:08;;;;;;;1999.90;999.90;;;;;;;1.85;55.09;100695.00;4910334;28;97905;-78
2021/11/25 04:45:39;;;;;;;1999.90;999.90;;;;;;;1.86;55.22;100687.22;4891639;28;100908;-76
2021/11/25 04:48:09;;;;;;;1999.90;999.90;;;;;;;1.82;55.28;100690.50;4905253;28;97299;-76
2021/11/25 04:50:39;;;;;;;1999.90;999.90;;;;;;;1.82;54.96;100686.94;4904915;28;97401;-80
2021/11/25 04:53:09;;;;;;;1999.90;999.90;;;;;;;1.80;55.48;100688.59;4903284;28;99424;-76
2021/11/25 04:55:37;;;;;;;1999.90;999.90;;;;;;;1.81;55.24;100680.84;4906725;28;97763;-76
2021/11/25 04:58:06;;;;;;;1999.90;999.90;;;;;;;1.82;55.61;100673.84;4905469;28;97310;-76
2021/11/25 05:00:34;;;;;;;1999.90;999.90;;;;;;;1.83;55.05;100675.66;4905939;28;98185;-75
2021/11/25 05:03:03;;;;;;;1999.90;999.90;;;;;;;1.84;55.46;100674.81;4886736;28;99427;-76
2021/11/25 05:05:32;;;;;;;1999.90;999.90;;;;;;;1.79;55.43;100677.22;4906121;28;98924;-76
2021/11/25 05:08:00;;;;;;;1999.90;999.90;;;;;;;1.76;55.00;100684.03;4907286;28;97488;-76
2021/11/25 05:10:29;;;;;;;1999.90;999.90;;;;;;;1.74;54.94;100678.69;4889428;28;97117;-74
2021/11/25 05:12:57;;;;;;;1999.90;999.90;;;;;;;1.68;54.88;100667.88;4907839;28;97822;-79
2021/11/25 05:15:25;;;;;;;1999.90;999.90;;;;;;;1.65;54.82;100670.28;4889779;28;101316;-80
2021/11/25 05:17:53;;;;;;;1999.90;999.90;;;;;;;1.63;55.46;100663.19;4888304;28;97596;-76
2021/11/25 05:20:22;;;;;;;1999.90;999.90;;;;;;;1.59;54.53;100671.69;4907248;28;97814;-80
2021/11/25 05:22:52;;;;;;;1999.90;999.90;;;;;;;1.52;55.34;100675.72;4905264;28;99389;-78
2021/11/25 05:25:20;;;;;;;1999.90;999.90;;;;;;;1.48;55.38;100672.81;4890627;28;100299;-80
2021/11/25 05:27:49;;;;;;;1999.90;999.90;;;;;;;1.48;55.73;100678.06;4904489;28;96869;-82
2021/11/25 05:30:17;;;;;;;1999.90;999.90;;;;;;;1.48;55.04;100673.72;4907623;28;97660;-80
2021/11/25 05:32:46;;;;;;;1999.90;999.90;;;;;;;1.50;55.41;100665.94;4893492;28;100557;-80
2021/11/25 05:35:16;;;;;;;1999.90;999.90;;;;;;;1.52;55.39;100662.59;4905474;28;99038;-78
2021/11/25 05:37:45;;;;;;;1999.90;999.90;;;;;;;1.54;54.60;100655.72;4887526;28;98159;-76
2021/11/25 05:40:15;;;;;;;1999.90;999.90;;;;;;;1.53;54.99;100667.00;4904985;28;97818;-78
2021/11/25 05:42:44;;;;;;;1999.90;999.90;;;;;;;1.52;54.95;100662.59;4901775;28;99236;-77
2021/11/25 05:45:19;;;;;;;1999.90;999.90;;;;;;;1.51;54.77;100658.16;4887621;28;100685;-77
2021/11/25 05:47:48;;;;;;;1999.90;999.90;;;;;;;1.54;55.47;100649.56;4903244;28;97171;-78
2021/11/25 05:50:19;;;;;;;1999.90;999.90;;;;;;;1.54;55.09;100652.19;4895903;28;97769;-78
2021/11/25 05:52:48;;;;;;;1999.90;999.90;;;;;;;1.53;55.20;100646.03;4872833;28;99915;-78
2021/11/25 05:55:18;;;;;;;1999.90;999.90;;;;;;;1.53;54.88;100647.75;4885514;28;100084;-78
2021/11/25 05:57:46;;;;;;;1999.90;999.90;;;;;;;1.52;55.58;100639.00;4903971;28;97641;-75
2021/11/25 06:00:15;;;;;;;1999.90;999.90;;;;;;;1.55;54.58;100628.66;4878623;28;97533;-72
2021/11/25 06:02:45;;;;;;;1999.90;999.90;;;;;;;1.55;55.21;100631.28;4898628;28;97641;-72
2021/11/25 06:05:17;;;;;;;1999.90;999.90;;;;;;;1.56;55.33;100635.69;4861557;28;100030;-70
2021/11/25 06:07:46;;;;;;;1999.90;999.90;;;;;;;1.55;54.95;100638.25;4884265;28;97670;-73
2021/11/25 06:10:16;;;;;;;1999.90;999.90;;;;;;;1.54;54.77;100625.97;4866675;28;97557;-76
2021/11/25 06:12:45;;;;;;;1999.90;999.90;;;;;;;1.52;54.38;100625.91;4902338;28;98609;-76
2021/11/25 06:15:14;;;;;;;1999.90;999.90;;;;;;;1.52;54.70;100639.00;4902360;28;99826;-76
2021/11/25 06:17:42;;;;;;;1999.90;999.90;;;;;;;1.53;55.19;100629.41;4878163;28;98145;-75
2021/11/25 06:20:12;;;;;;;1999.90;999.90;;;;;;;1.52;54.78;100623.28;4887388;28;97575;-74
2021/11/25 06:22:40;;;;;;;1999.90;999.90;;;;;;;1.54;54.73;100633.84;4896834;28;98278;-75
2021/11/25 06:25:11;;;;;;;1999.90;999.90;;;;;;;1.55;54.88;100633.91;4903179;28;96762;-74
2021/11/25 06:27:40;;;;;;;1999.90;999.90;;;;;;;1.56;55.38;100632.22;4899282;28;97987;-75
2021/11/25 06:30:12;;;;;;;1999.90;999.90;;;;;;;1.55;55.45;100627.75;4887038;28;97878;-78
2021/11/25 06:32:41;;;;;;;1999.90;999.90;;;;;;;1.51;54.61;100620.53;4903295;28;97357;-75
2021/11/25 06:35:10;;;;;;;1999.90;999.90;;;;;;;1.50;54.61;100632.78;4902190;28;97643;-74
2021/11/25 06:37:39;;;;;;;1999.90;999.90;;;;;;;1.49;55.09;100632.69;4886560;28;97426;-75
2021/11/25 06:40:10;;;;;;;1999.90;999.90;;;;;;;1.46;54.70;100630.78;4903885;28;97724;-76
2021/11/25 06:42:38;;;;;;;1999.90;999.90;;;;;;;1.45;54.41;100628.97;4885837;28;99271;-75
2021/11/25 06:45:09;;;;;;;1999.90;999.90;;;;;;;1.41;55.41;100629.66;4885964;28;99360;-73
2021/11/25 06:47:38;;;;;;;1999.90;999.90;;;;;;;1.37;54.28;100622.44;4899031;28;97528;-73
2021/11/25 06:50:07;;;;;;;1999.90;999.90;;;;;;;1.33;55.04;100622.16;4882906;28;97458;-74
2021/11/25 06:52:35;;;;;;;1999.90;999.90;;;;;;;1.26;55.18;100617.41;4878765;28;100290;-76
2021/11/25 06:55:04;;;;;;;1999.90;999.90;;;;;;;1.25;54.50;100611.28;4885238;28;98884;-76
2021/11/25 06:57:33;;;;;;;1999.90;999.90;;;;;;;1.23;54.48;100602.44;4885236;28;98317;-77
2021/11/25 07:00:03;;;;;;;1999.90;999.90;;;;;;;1.21;54.85;100604.94;4886480;28;98064;-75
2021/11/25 07:02:33;;;;;;;1999.90;999.90;;;;;;;1.18;54.95;100620.50;4901110;28;97659;-75
2021/11/25 07:05:02;;;;;;;1999.90;999.90;;;;;;;1.14;54.54;100628.13;4903314;28;98696;-74
2021/11/25 07:07:30;;;;;;;1999.90;999.90;;;;;;;1.15;54.91;100627.28;4903890;28;98251;-74
2021/11/25 07:09:58;;;;;;;1999.90;999.90;;;;;;;1.14;54.92;100620.25;4892190;28;98247;-73
2021/11/25 07:12:27;;;;;;;1999.90;999.90;;;;;;;1.16;54.70;100618.59;4901926;28;99578;-76
2021/11/25 07:14:55;;;;;;;1999.90;999.90;;;;;;;1.16;54.63;100610.75;4885406;28;99689;-76
2021/11/25 07:17:28;;;;;;;1999.90;999.90;;;;;;;1.17;55.14;100607.31;4894789;28;97668;-75
2021/11/25 07:19:58;;;;;;;1999.90;999.90;;;;;;;1.18;54.81;100596.91;4885096;28;97383;-76
2021/11/25 07:22:27;;;;;;;1999.90;999.90;;;;;;;1.23;54.41;100596.28;4900535;28;98765;-76
2021/11/25 07:24:56;;;;;;;1999.90;999.90;;;;;;;1.25;54.74;100600.78;4904136;28;97692;-78
2021/11/25 07:27:24;;;;;;;1999.90;999.90;;;;;;;1.28;54.92;100606.19;4887271;28;97260;-77
2021/11/25 07:29:52;;;;;;;1999.90;999.90;;;;;;;1.31;54.84;100601.09;4903275;28;97552;-77
2021/11/25 07:32:21;;;;;;;1999.90;999.90;;;;;;;1.37;54.14;100609.31;4889158;28;100658;-76
2021/11/25 07:34:49;;;;;;;1999.90;999.90;;;;;;;1.40;54.48;100601.59;4903421;28;97630;-74
2021/11/25 07:37:18;;;;;;;1999.90;999.90;;;;;;;1.43;54.67;100606.13;4886117;28;96898;-74
2021/11/25 07:39:47;;;;;;;1999.90;999.90;;;;;;;1.45;53.87;100596.63;4884787;28;98124;-73
2021/11/25 07:42:15;;;;;;;1999.90;999.90;;;;;;;1.43;54.19;100599.19;4901763;28;97836;-75
2021/11/25 07:44:43;;;;;;;1999.90;999.90;;;;;;;1.44;54.63;100602.69;4885420;28;101438;-74
2021/11/25 07:47:11;;;;;;;1999.90;999.90;;;;;;;1.45;54.55;100597.50;4903456;28;97392;-73
2021/11/25 07:49:40;;;;;;;1999.90;999.90;;;;;;;1.46;54.33;100594.09;4900532;28;97317;-73
2021/11/25 07:52:13;;;;;;;1999.90;999.90;;;;;;;1.46;53.94;100591.47;4885552;28;100093;-72
2021/11/25 07:54:43;;;;;;;1999.90;999.90;;;;;;;1.45;54.31;100591.38;4902336;28;97939;-74
2021/11/25 07:57:12;;;;;;;1999.90;999.90;;;;;;;1.43;54.37;100579.91;4903477;28;96911;-74
2021/11/25 07:59:43;;;;;;;1999.90;999.90;;;;;;;1.44;54.23;100577.38;4903082;28;96812;-74
2021/11/25 08:02:12;;;;;;;1999.90;999.90;;;;;;;1.45;54.33;100579.16;4885818;28;98154;-74
2021/11/25 08:04:42;;;;;;;1999.90;999.90;;;;;;;1.49;54.50;100575.91;4900392;28;98700;-73
2021/11/25 08:07:10;;;;;;;1999.90;999.90;;;;;;;1.49;54.26;100570.66;4888542;28;97598;-74
2021/11/25 08:09:39;;;;;;;1999.90;999.90;;;;;;;1.47;54.21;100567.03;4885682;28;97178;-75
2021/11/25 08:12:09;;;;;;;1999.90;999.90;;;;;;;1.45;53.89;100568.66;4886774;28;100654;-75
2021/11/25 08:14:38;;;;;;;1999.90;999.90;;;;;;;1.45;53.98;100568.66;4903194;28;97603;-74
2021/11/25 08:17:09;;;;;;;1999.90;999.90;;;;;;;1.46;54.32;100567.88;4888365;28;97701;-75
2021/11/25 08:19:38;;;;;;;1999.90;999.90;;;;;;;1.45;54.27;100562.56;4903642;28;98087;-74
2021/11/25 08:22:06;;;;;;;1999.90;999.90;;;;;;;1.42;53.65;100560.66;4902327;28;97824;-74
2021/11/25 08:24:35;;;;;;;1999.90;999.90;;;;;;;1.38;53.80;100556.06;4903189;28;98850;-74
2021/11/25 08:27:03;;;;;;;1999.90;999.90;;;;;;;1.29;53.74;100560.81;4891714;28;97646;-74
2021/11/25 08:29:33;;;;;;;1999.90;999.90;;;;;;;1.21;53.22;100557.75;4869343;28;97081;-74
2021/11/25 08:32:01;;;;;;;1999.90;999.90;;;;;;;1.16;53.84;100554.00;4902747;28;97687;-74
2021/11/25 08:34:30;;;;;;;1999.90;999.90;;;;;;;1.11;54.00;100551.94;4903510;28;99530;-72
2021/11/25 08:36:58;;;;;;;1999.90;999.90;;;;;;;1.08;53.30;100543.94;4905154;28;97058;-73
2021/11/25 08:39:26;;;;;;;1999.90;999.90;;;;;;;1.03;54.25;100548.03;4880871;28;97683;-72
2021/11/25 08:41:55;;;;;;;1999.90;999.90;;;;;;;0.99;53.50;100546.03;4895022;28;98014;-75
2021/11/25 08:44:23;;;;;;;1999.90;999.90;;;;;;;0.96;53.97;100548.47;4923392;28;97652;-73
2021/11/25 08:46:53;;;;;;;1999.90;999.90;;;;;;;0.95;54.13;100544.06;4926370;28;98946;-74
2021/11/25 08:49:21;;;;;;;1999.90;999.90;;;;;;;0.97;53.88;100545.06;4915971;28;97824;-72
2021/11/25 08:51:49;;;;;;;1999.90;999.90;;;;;;;0.96;53.69;100533.66;4924432;28;97713;-73
2021/11/25 08:54:17;;;;;;;1999.90;999.90;;;;;;;0.99;53.58;100538.19;4907557;28;99231;-73
2021/11/25 08:56:46;;;;;;;1999.90;999.90;;;;;;;0.99;53.78;100527.69;4915596;28;97899;-74
2021/11/25 08:59:14;;;;;;;1999.90;999.90;;;;;;;1.00;53.35;100524.25;4910741;28;98036;-73
2021/11/25 09:01:42;;;;;;;1999.90;999.90;;;;;;;1.01;53.35;100536.56;4884284;28;97906;-75
2021/11/25 09:04:12;;;;;;;1999.90;999.90;;;;;;;1.02;53.59;100539.25;4885180;28;97454;-74
2021/11/25 09:06:41;;;;;;;1999.90;999.90;;;;;;;1.01;53.98;100531.31;4903300;28;97553;-76
2021/11/25 09:09:09;;;;;;;1999.90;999.90;;;;;;;1.04;53.71;100536.72;4903455;28;97657;-76
2021/11/25 09:11:39;;;;;;;1999.90;999.90;;;;;;;1.05;54.28;100535.91;4901529;28;99746;-75
2021/11/25 09:14:07;;;;;;;1999.90;999.90;;;;;;;1.06;53.63;100538.59;4901335;28;99313;-74
2021/11/25 09:16:35;;;;;;;1999.90;999.90;;;;;;;1.07;53.46;100531.63;4901933;28;97202;-77
2021/11/25 09:19:04;;;;;;;1999.90;999.90;;;;;;;1.03;53.78;100533.19;4899147;28;97858;-78
2021/11/25 09:21:34;;;;;;;1999.90;999.90;;;;;;;1.00;53.45;100529.50;4882612;28;98402;-76
2021/11/25 09:24:05;;;;;;;1999.90;999.90;;;;;;;0.99;53.49;100532.94;4883534;28;97771;-76
2021/11/25 09:26:34;;;;;;;1999.90;999.90;;;;;;;0.92;52.93;100536.91;4899847;28;96880;-73
2021/11/25 09:29:07;;;;;;;1999.90;999.90;;;;;;;0.89;53.41;100535.84;4900123;28;97491;-78
2021/11/25 09:31:36;;;;;;;1999.90;999.90;;;;;;;0.88;53.60;100542.84;4884907;28;98045;-77
2021/11/25 09:34:07;;;;;;;1999.90;999.90;;;;;;;0.87;53.78;100537.47;4901493;28;98194;-76
2021/11/25 09:36:37;;;;;;;1999.90;999.90;;;;;;;0.88;53.56;100540.22;4915866;28;98132;-75
2021/11/25 09:39:07;;;;;;;1999.90;999.90;;;;;;;0.89;53.29;100533.22;4902784;28;96902;-75
2021/11/25 09:41:35;;;;;;;1999.90;999.90;;;;;;;0.89;53.91;100510.56;4882369;28;98537;-76
2021/11/25 09:44:05;;;;;;;1999.90;999.90;;;;;;;0.88;53.94;100513.13;4886349;28;99876;-76
2021/11/25 09:46:34;;;;;;;1999.90;999.90;;;;;;;0.87;53.87;100516.53;4891926;28;97252;-79
2021/11/25 09:49:06;;;;;;;1999.90;999.90;;;;;;;0.85;53.64;100518.19;4904640;28;97101;-79
2021/11/25 09:51:36;;;;;;;1999.90;999.90;;;;;;;0.84;53.71;100519.00;4905736;28;98024;-75
2021/11/25 09:54:06;;;;;;;1999.90;999.90;;;;;;;0.84;53.99;100521.59;4886980;28;98032;-76
2021/11/25 09:56:34;;;;;;;1999.90;999.90;;;;;;;0.84;53.73;100514.66;4901949;28;97416;-77
2021/11/25 09:59:03;;;;;;;1999.90;999.90;;;;;;;0.86;53.43;100525.22;4903989;28;97766;-76
2021/11/25 10:01:33;;;;;;;1999.90;999.90;;;;;;;0.84;53.58;100506.81;4902977;28;99267;-77
2021/11/25 10:04:02;;;;;;;1999.90;999.90;;;;;;;0.84;53.87;100495.41;4903634;28;97974;-77
2021/11/25 10:06:33;;;;;;;1999.90;999.90;;;;;;;0.83;54.24;100494.50;4904063;28;97604;-77
2021/11/25 10:09:04;;;;;;;1999.90;999.90;;;;;;;0.81;53.21;100492.66;4902811;28;97019;-76
2021/11/25 10:11:34;;;;;;;1999.90;999.90;;;;;;;0.80;53.94;100488.22;4903518;28;97868;-77
2021/11/25 10:14:07;;;;;;;1999.90;999.90;;;;;;;0.76;54.10;100481.00;4903315;28;100806;-78
2021/11/25 10:16:38;;;;;;;1999.90;999.90;;;;;;;0.74;53.79;100488.75;4904832;28;97500;-73
2021/11/25 10:19:12;;;;;;;1999.90;999.90;;;;;;;0.70;53.28;100485.91;4905195;28;97389;-77
2021/11/25 10:21:42;;;;;;;1999.90;999.90;;;;;;;0.66;53.71;100482.22;4903828;28;97621;-78
2021/11/25 10:24:12;;;;;;;1999.90;999.90;;;;;;;0.95;52.30;100462.84;4904087;28;98684;-79
2021/11/25 10:26:40;;;;;;;1999.90;999.90;;;;;;;0.80;53.61;100473.41;4904782;28;99867;-80
2021/11/25 10:29:10;;;;;;;1999.90;999.90;;;;;;;0.76;53.43;100481.00;4908788;28;97427;-77
2021/11/25 10:31:40;;;;;;;1999.90;999.90;;;;;;;0.72;53.90;100489.53;4901710;28;98981;-75
2021/11/25 10:34:11;;;;;;;1999.90;999.90;;;;;;;0.66;53.77;100483.94;4904848;28;100592;-75
2021/11/25 10:36:55;;;;;;;1999.90;999.90;;;;;;;0.61;53.93;100474.94;4887029;28;97790;-79
2021/11/25 10:39:47;;;;;;;1999.90;999.90;;;;;;;0.59;53.39;100476.56;4904977;28;97150;-77
2021/11/25 10:42:17;;;;;;;1999.90;999.90;;;;;;;0.58;53.67;100486.13;4904051;28;100535;-77
2021/11/25 10:44:48;;;;;;;1999.90;999.90;;;;;;;0.56;54.13;100479.00;4902960;28;97534;-77
2021/11/25 10:47:17;;;;;;;1999.90;999.90;;;;;;;0.53;53.53;100477.13;4887151;28;97614;-77
2021/11/25 10:49:51;;;;;;;1999.90;999.90;;;;;;;0.50;54.08;100471.72;4885693;28;97130;-75
2021/11/25 10:52:23;;;;;;;1999.90;999.90;;;;;;;0.51;53.87;100475.22;4904439;28;98229;-77
2021/11/25 10:54:54;;;;;;;1999.90;999.90;;;;;;;0.51;53.83;100467.34;4904838;28;97609;-75
2021/11/25 10:57:24;;;;;;;1999.90;999.90;;;;;;;0.54;54.10;100473.66;4905746;28;97218;-75
2021/11/25 10:59:53;;;;;;;1999.90;999.90;;;;;;;0.55;54.18;100474.56;4902025;28;97837;-73
2021/11/25 11:02:28;;;;;;;1999.90;999.90;;;;;;;0.53;54.18;100466.66;4884417;28;99277;-77
2021/11/25 11:04:59;;;;;;;1999.90;999.90;;;;;;;0.52;53.96;100458.72;4903062;28;98063;-77
2021/11/25 11:07:29;;;;;;;1999.90;999.90;;;;;;;0.53;53.98;100452.66;4901954;28;97851;-77